Detalhes do Voo

Voltar

 DETALHES DO VÔO

Piloto: GLD1028 Bruno C. Aeronave: ATCCOM.ATC_NAME BOEING. Distância: 734NM
Origem: SBCT Destino: SBCY Duração: 2.26
Validação: Validado Tipo: Charter Matrícula: PT-GLD
ZFW: 130748 Block Fuel/Init FOB 10,922/5,686 Combustível em Voo 10,922
Passageiros: 121 Carga: 8019 Alternativo: SBGO
Hora da Decolagem: 0710 Velocidade de Cruzeiro: 468 Nível de Voo: FL360
Regra Visual: IFR ICAO da Aeronave: B738 Unidade de Peso: Kg
Data: 03/05/2026 Observação: GOLD ACARS Rede: VATSIM
Acidentou?: Não Comentários do Validador: Pontuação do Voo 95

 ROTA

ROTA EVMU1A GEGOB UZ63 LON DCT VUROB DCT NEDOK DCT
REMARKS OPR/GOLD VIRTUAL AIRLINES PER/C RMK/FROM SBCT RMK/PIC GLD1028

 PENALIDADES DO VOO

Para entender como cada item é pontuado, consulte as regras de avaliação.

- Luzes incorretas abaixo de 10000ft (−5 pontos)

 ANÁLISE DO POUSO

Vento durante o pouso: 319º/5 kt Proa durante o pouso: 333
V/S do Pouso: -58 ft/min IAS do Pouso: 146 kt
Força G no pouso: 1.0288 G Bank no pouso: -0.45
Pitch no Pouso 4.41 Flaps no Pouso 87
Nav Lights ON Landing Lights ON
Beacon Lights ON Strobe Lights ON

 MAPA DO VOO

 PERFIL VERTICAL DO VOO

 EVENTOS PRINCIPAIS DO VOO

DATAEVENTOIASALTITUDE
2026-05-03 07:10:53 GOLD ACARS VERSION 3.3.7.000
2026-05-03 07:10:53 NAV LIGHTS ON00
2026-05-03 07:10:53 BOARDING02729
2026-05-03 07:10:53 LITTLENAVMAP ON02729
2026-05-03 07:12:09 NAV LIGHTS OFF02729
2026-05-03 07:12:10 NAV LIGHTS ON02729
2026-05-03 07:14:46 BCN LIGHTS ON02730
2026-05-03 07:15:27 STARTING ENGINE 202730
2026-05-03 07:16:29 TAXI LIGHTS ON02729
2026-05-03 07:17:17 STARTING ENGINE 102729
2026-05-03 07:18:22 TAXI TO THE RWY12729
2026-05-03 07:19:42 FLAP 12%02730
2026-05-03 07:19:50 FLAP 25%02730
2026-05-03 07:19:54 FLAP 37%12730
2026-05-03 07:24:56 LND LIGHTS ON22994
2026-05-03 07:24:58 NAV LIGHTS OFF22994
2026-05-03 07:24:58 STB LIGHTS ON22994
2026-05-03 07:28:51 TAXI LIGHTS OFF72995
2026-05-03 07:29:42 CLIMBING1763008
2026-05-03 07:29:43 GEAR UP1773031
2026-05-03 07:30:39 FLAP 25%2015285
2026-05-03 07:30:43 FLAP 12%2035358
2026-05-03 07:30:51 FLAP 0%2105410
2026-05-03 07:32:52 LND LIGHTS OFF23910095
2026-05-03 07:53:05 CRUISE26336005
2026-05-03 08:55:04 DESCEND26235988
2026-05-03 09:12:02 LIGHTS OFF BELOW 10000 ft2399491
2026-05-03 09:12:17 LND LIGHTS ON2399214
2026-05-03 09:14:24 FLAP 12%2535646
2026-05-03 09:14:31 GEAR DOWN2495405
2026-05-03 09:14:32 FLAP 25%2495391
2026-05-03 09:15:01 FLAP 37%2224506
2026-05-03 09:15:13 FLAP 50%2144103
2026-05-03 09:15:19 FLAP 62%2113913
2026-05-03 09:15:46 FLAP 74%1833398
2026-05-03 09:16:36 FLAP 87%1722661
2026-05-03 09:18:58 LANDED AIRPORT [SBCY]146613
2026-05-03 09:18:58 LANDED - VS: -58 ft/min145612
2026-05-03 09:19:23 FLAP 74%49606
2026-05-03 09:19:27 FLAP 62%43607
2026-05-03 09:19:29 FLAP 50%38607
2026-05-03 09:19:32 FLAP 37%35606
2026-05-03 09:19:37 FLAP 25%34606
2026-05-03 09:19:41 FLAP 12%33606
2026-05-03 09:19:44 TAXI TO THE GATE26606
2026-05-03 09:19:48 FLAP 0%20606
2026-05-03 09:20:52 STOPPING ENGINE 28606
2026-05-03 09:22:58 AT THE GATE4608
2026-05-03 09:23:02 LND LIGHTS OFF4608
2026-05-03 09:23:03 TAXI LIGHTS ON4608
2026-05-03 09:23:04 STB LIGHTS OFF4608
2026-05-03 09:25:00 STOPPING ENGINE 11607
2026-05-03 09:25:04 TAXI LIGHTS OFF1607
2026-05-03 09:26:16 BCN LIGHTS OFF1607
2026-05-03 09:26:16 FLIGHT FINISHED1607

 DADOS DO ACARS

DATA IAS GS ALTITUDE COMBUSTÍVEL USADO OAT FASE DO VOO
2026-05-03 07:12:53 0 0 2729 1 14 BOARDING
2026-05-03 07:13:54 0 0 2729 2 14 BOARDING
2026-05-03 07:14:54 0 2 2730 3 14 BOARDING
2026-05-03 07:15:54 0 2 2730 8 14 BOARDING
2026-05-03 07:16:54 0 0 2729 14 14 BOARDING
2026-05-03 07:17:54 0 0 2729 25 14 BOARDING
2026-05-03 07:18:54 0 6 2730 41 14 BOARDING
2026-05-03 07:19:54 2 6 2730 52 14 TAXI TO THE RWY
2026-05-03 07:20:54 1 6 2730 62 14 TAXI TO THE RWY
2026-05-03 07:21:54 0 5 2729 72 14 TAXI TO THE RWY
2026-05-03 07:22:54 0 6 2729 85 14 TAXI TO THE RWY
2026-05-03 07:23:54 0 6 2728 95 14 TAXI TO THE RWY
2026-05-03 07:24:54 3 6 2994 106 14 TAXI TO THE RWY
2026-05-03 07:25:55 3 5 2995 117 14 TAXI TO THE RWY
2026-05-03 07:26:55 1 8 2995 134 14 TAXI TO THE RWY
2026-05-03 07:27:55 2 8 2996 145 14 TAXI TO THE RWY
2026-05-03 07:28:55 4 0 2995 162 15 TAXI TO THE RWY
2026-05-03 07:29:55 174 174 3661 328 14 TAXI TO THE RWY
2026-05-03 07:30:55 217 248 5430 480 11 CLIMBING
2026-05-03 07:31:55 241 264 7759 596 9 CLIMBING
2026-05-03 07:32:55 239 273 10237 706 5 CLIMBING
2026-05-03 07:33:55 304 351 10910 812 4 CLIMBING
2026-05-03 07:34:55 315 368 12112 884 2 CLIMBING
2026-05-03 07:35:55 315 380 14320 983 -1 CLIMBING
2026-05-03 07:36:56 313 384 16481 1080 -6 CLIMBING
2026-05-03 07:37:56 314 394 18449 1173 -10 CLIMBING
2026-05-03 07:38:56 314 394 20409 1261 -14 CLIMBING
2026-05-03 07:39:56 313 419 22271 1344 -18 CLIMBING
2026-05-03 07:40:56 314 424 23733 1423 -20 CLIMBING
2026-05-03 07:41:57 314 431 24804 1500 -23 CLIMBING
2026-05-03 07:42:57 314 439 25815 1572 -25 CLIMBING
2026-05-03 07:43:57 314 446 26732 1644 -27 CLIMBING
2026-05-03 07:44:57 314 453 27513 1713 -29 CLIMBING
2026-05-03 07:45:57 311 457 28437 1781 -31 CLIMBING
2026-05-03 07:46:57 303 454 29670 1847 -33 CLIMBING
2026-05-03 07:47:57 294 448 30875 1910 -36 CLIMBING
2026-05-03 07:48:57 287 442 32079 1972 -39 CLIMBING
2026-05-03 07:49:57 279 419 33235 2030 -42 CLIMBING
2026-05-03 07:50:57 273 417 34234 2087 -44 CLIMBING
2026-05-03 07:51:57 268 412 35194 2141 -46 CLIMBING
2026-05-03 07:52:57 264 411 35909 2194 -48 CLIMBING
2026-05-03 07:53:58 263 411 36008 2235 -48 CLIMBING
2026-05-03 07:54:58 260 407 35991 2272 -48 CRUISE
2026-05-03 07:55:58 260 407 36009 2311 -48 CRUISE
2026-05-03 07:56:58 260 410 35988 2352 -48 CRUISE
2026-05-03 07:57:58 263 414 36002 2395 -48 CRUISE
2026-05-03 07:58:58 265 424 35987 2438 -48 CRUISE
2026-05-03 07:59:58 265 424 36003 2479 -48 CRUISE
2026-05-03 08:00:58 263 423 35983 2519 -48 CRUISE
2026-05-03 08:01:58 263 421 35998 2559 -48 CRUISE
2026-05-03 08:02:58 262 421 36004 2599 -48 CRUISE
2026-05-03 08:03:58 262 421 35993 2639 -48 CRUISE
2026-05-03 08:04:58 262 421 36002 2679 -48 CRUISE
2026-05-03 08:05:58 262 421 36005 2720 -48 CRUISE
2026-05-03 08:06:58 262 422 36005 2761 -48 CRUISE
2026-05-03 08:07:58 262 424 35998 2802 -48 CRUISE
2026-05-03 08:08:58 263 426 36001 2843 -48 CRUISE
2026-05-03 08:09:59 263 426 36003 2884 -48 CRUISE
2026-05-03 08:10:59 263 427 36002 2924 -48 CRUISE
2026-05-03 08:11:59 263 427 35998 2964 -48 CRUISE
2026-05-03 08:12:59 263 428 35998 3005 -48 CRUISE
2026-05-03 08:13:59 262 428 35982 3045 -47 CRUISE
2026-05-03 08:14:59 262 428 36003 3086 -47 CRUISE
2026-05-03 08:15:59 262 430 35989 3126 -47 CRUISE
2026-05-03 08:16:59 263 431 35999 3167 -47 CRUISE
2026-05-03 08:17:59 263 431 35998 3208 -47 CRUISE
2026-05-03 08:19:00 263 431 36002 3248 -47 CRUISE
2026-05-03 08:20:00 263 430 36000 3288 -47 CRUISE
2026-05-03 08:21:00 262 430 35996 3328 -47 CRUISE
2026-05-03 08:22:00 262 431 36000 3368 -47 CRUISE
2026-05-03 08:23:00 262 431 35996 3408 -47 CRUISE
2026-05-03 08:24:00 262 432 36002 3449 -47 CRUISE
2026-05-03 08:25:00 262 432 36004 3489 -47 CRUISE
2026-05-03 08:26:00 262 433 36008 3529 -47 CRUISE
2026-05-03 08:27:00 263 434 35999 3569 -47 CRUISE
2026-05-03 08:28:00 261 435 36001 3610 -47 CRUISE
2026-05-03 08:29:00 262 436 35999 3650 -47 CRUISE
2026-05-03 08:30:01 262 437 36003 3691 -47 CRUISE
2026-05-03 08:31:01 263 439 35999 3732 -47 CRUISE
2026-05-03 08:32:01 262 439 35995 3772 -47 CRUISE
2026-05-03 08:33:01 262 440 36000 3812 -47 CRUISE
2026-05-03 08:34:01 262 441 35988 3853 -47 CRUISE
2026-05-03 08:35:01 262 442 36002 3893 -47 CRUISE
2026-05-03 08:36:01 263 443 36002 3934 -47 CRUISE
2026-05-03 08:37:01 262 443 36002 3974 -47 CRUISE
2026-05-03 08:38:01 262 443 35998 4013 -47 CRUISE
2026-05-03 08:39:02 261 444 36002 4053 -47 CRUISE
2026-05-03 08:40:02 262 445 36003 4094 -47 CRUISE
2026-05-03 08:41:02 262 446 35996 4134 -47 CRUISE
2026-05-03 08:42:02 262 447 36001 4174 -47 CRUISE
2026-05-03 08:43:02 261 448 35986 4214 -47 CRUISE
2026-05-03 08:44:02 261 449 36002 4254 -47 CRUISE
2026-05-03 08:45:02 263 450 35999 4294 -47 CRUISE
2026-05-03 08:46:02 262 450 36003 4335 -47 CRUISE
2026-05-03 08:47:02 262 451 36000 4375 -46 CRUISE
2026-05-03 08:48:03 263 451 36000 4415 -47 CRUISE
2026-05-03 08:49:03 263 451 35998 4454 -47 CRUISE
2026-05-03 08:50:03 261 450 35989 4493 -46 CRUISE
2026-05-03 08:51:03 261 449 35998 4532 -46 CRUISE
2026-05-03 08:52:03 261 449 36000 4572 -47 CRUISE
2026-05-03 08:53:03 261 450 36001 4612 -46 CRUISE
2026-05-03 08:54:04 262 452 36000 4652 -46 CRUISE
2026-05-03 08:55:04 262 454 35994 4693 -46 CRUISE
2026-05-03 08:56:04 279 464 33550 4711 -40 CRUISE
2026-05-03 08:57:04 288 461 30900 4726 -32 DESCEND
2026-05-03 08:58:04 289 446 28603 4741 -27 DESCEND
2026-05-03 08:59:04 286 431 26530 4756 -22 DESCEND
2026-05-03 09:00:05 285 422 24532 4772 -17 DESCEND
2026-05-03 09:01:05 287 414 22444 4787 -12 DESCEND
2026-05-03 09:02:06 260 374 21631 4802 -11 DESCEND
2026-05-03 09:03:06 250 356 20559 4818 -8 DESCEND
2026-05-03 09:04:06 250 350 19200 4833 -6 DESCEND
2026-05-03 09:05:06 250 344 17858 4848 -3 DESCEND
2026-05-03 09:06:06 250 338 16477 4863 0 DESCEND
2026-05-03 09:07:06 249 329 15174 4879 2 DESCEND
2026-05-03 09:08:06 250 324 13929 4894 5 DESCEND
2026-05-03 09:09:07 250 318 12617 4909 7 DESCEND
2026-05-03 09:10:07 240 303 11693 4924 8 DESCEND
2026-05-03 09:11:07 240 299 10552 4939 9 DESCEND
2026-05-03 09:12:07 240 294 9410 4955 11 DESCEND
2026-05-03 09:13:07 243 289 8100 4970 12 DESCEND
2026-05-03 09:14:08 252 285 6194 4985 14 DESCEND
2026-05-03 09:15:08 219 242 4297 5000 19 DESCEND
2026-05-03 09:16:08 169 185 3088 5018 23 DESCEND
2026-05-03 09:17:09 169 184 2124 5064 26 DESCEND
2026-05-03 09:18:09 170 174 1209 5114 26 DESCEND
2026-05-03 09:19:09 76 72 608 5166 26 DESCEND
2026-05-03 09:20:09 10 7 607 5193 26 LANDED - VS: -58 ft/min
2026-05-03 09:21:09 8 13 606 5205 26 TAXI TO THE GATE
2026-05-03 09:22:10 6 11 607 5211 26 TAXI TO THE GATE
2026-05-03 09:23:10 5 0 608 5218 26 TAXI TO THE GATE
2026-05-03 09:24:10 6 2 608 5226 26 AT THE GATE
2026-05-03 09:25:10 1 0 607 5234 26 AT THE GATE
2026-05-03 09:26:10 1 0 607 5235 26 AT THE GATE